createdAt,value
2022-12-22T00:01:32.878Z,173.00
2022-12-22T00:04:53.273Z,183.40
2022-12-22T00:08:13.573Z,183.00
2022-12-22T00:11:33.992Z,188.60
2022-12-22T00:14:54.875Z,187.70
2022-12-22T00:18:15.362Z,190.50
2022-12-22T00:21:35.563Z,188.90
2022-12-22T00:24:56.097Z,178.50
2022-12-22T00:28:16.885Z,175.10
2022-12-22T00:31:37.808Z,166.40
2022-12-22T00:35:00.185Z,174.90
2022-12-22T00:38:20.612Z,176.90
2022-12-22T00:41:41.292Z,169.00
2022-12-22T00:45:01.890Z,183.80
2022-12-22T00:48:23.209Z,176.80
2022-12-22T00:51:43.876Z,170.90
2022-12-22T00:55:04.439Z,172.30
2022-12-22T00:58:28.177Z,180.10
2022-12-22T01:01:48.904Z,177.30
2022-12-22T01:05:09.785Z,172.70
2022-12-22T01:08:31.119Z,165.20
2022-12-22T01:11:52.366Z,173.10
2022-12-22T01:15:13.214Z,166.00
2022-12-22T01:18:34.325Z,159.00
2022-12-22T01:21:54.644Z,156.60
2022-12-22T01:25:15.202Z,156.80
2022-12-22T01:28:36.329Z,170.70
2022-12-22T01:31:57.248Z,170.60
2022-12-22T01:35:17.512Z,181.00
2022-12-22T01:38:38.527Z,178.50
2022-12-22T01:41:59.208Z,199.80
2022-12-22T01:45:24.804Z,215.50
2022-12-22T01:48:48.027Z,201.10
2022-12-22T01:52:08.272Z,219.70
2022-12-22T01:55:32.419Z,222.10
2022-12-22T01:58:55.659Z,222.80
2022-12-22T02:02:17.177Z,218.00
2022-12-22T02:05:38.279Z,216.10
2022-12-22T02:09:03.786Z,204.00
2022-12-22T02:12:32.548Z,177.80
2022-12-22T02:16:07.253Z,195.30
2022-12-22T02:19:56.338Z,180.90
2022-12-22T02:23:38.222Z,193.80
2022-12-22T02:27:04.639Z,179.60
2022-12-22T02:30:28.482Z,191.40
2022-12-22T02:33:48.967Z,175.50
2022-12-22T02:37:21.400Z,170.60
2022-12-22T02:40:50.890Z,167.80
2022-12-22T02:44:34.117Z,171.70
2022-12-22T02:48:40.976Z,156.80
2022-12-22T02:52:10.468Z,156.90
2022-12-22T02:55:31.140Z,163.00
2022-12-22T02:58:52.315Z,153.50
2022-12-22T03:02:13.274Z,145.20
2022-12-22T03:05:33.673Z,149.40
2022-12-22T03:08:53.901Z,160.90
2022-12-22T03:12:14.229Z,158.10
2022-12-22T03:15:34.951Z,161.90
2022-12-22T03:18:55.615Z,185.90
2022-12-22T03:22:16.244Z,155.50
2022-12-22T03:25:36.612Z,163.70
2022-12-22T03:28:38.294Z,167.00
2022-12-22T03:34:42.015Z,178.40
2022-12-22T03:40:45.283Z,189.60
2022-12-22T03:44:05.768Z,171.40
2022-12-22T03:47:07.512Z,166.90
2022-12-22T03:53:11.103Z,183.20
2022-12-22T03:56:12.814Z,185.80
2022-12-22T03:59:14.855Z,163.10
2022-12-22T04:02:16.825Z,169.20
2022-12-22T04:05:19.081Z,177.00
2022-12-22T04:08:20.705Z,175.20
2022-12-22T04:11:41.168Z,170.40
2022-12-22T04:14:42.804Z,165.30
2022-12-22T04:17:44.487Z,162.90
2022-12-22T04:20:46.123Z,157.00
2022-12-22T04:23:51.303Z,165.40
2022-12-22T04:26:53.194Z,163.40
2022-12-22T04:29:55.192Z,165.90
2022-12-22T04:35:58.612Z,167.60
2022-12-22T04:42:01.845Z,162.40
2022-12-22T04:48:05.788Z,149.80
2022-12-22T04:51:07.557Z,136.80
2022-12-22T04:57:11.488Z,125.20
2022-12-22T05:00:13.730Z,128.00
2022-12-22T05:03:15.633Z,127.00
2022-12-22T05:06:17.408Z,130.00
2022-12-22T05:12:39.220Z,133.30
2022-12-22T05:15:41.472Z,123.10
2022-12-22T05:18:45.205Z,136.10
2022-12-22T05:21:46.963Z,130.70
2022-12-22T05:27:51.017Z,136.20
2022-12-22T05:30:53.660Z,133.50
2022-12-22T05:33:55.524Z,119.50
2022-12-22T05:39:58.962Z,129.30
2022-12-22T05:46:07.861Z,135.30
2022-12-22T05:49:09.695Z,126.80
2022-12-22T05:52:11.436Z,125.00
2022-12-22T05:58:15.188Z,137.60
2022-12-22T06:01:16.872Z,136.50
2022-12-22T06:04:18.742Z,134.60
2022-12-22T06:07:20.686Z,120.30
2022-12-22T06:13:24.888Z,126.30
2022-12-22T06:16:26.717Z,128.60
2022-12-22T06:22:30.237Z,143.10
2022-12-22T06:25:32.216Z,147.40
2022-12-22T06:28:33.939Z,126.60
2022-12-22T06:34:37.682Z,135.70
2022-12-22T06:40:41.060Z,127.30
2022-12-22T06:43:42.723Z,129.10
2022-12-22T06:49:46.410Z,132.30
2022-12-22T06:55:49.865Z,121.60
2022-12-22T06:58:51.598Z,129.90
2022-12-22T07:01:53.517Z,132.30
2022-12-22T07:04:55.301Z,146.70
2022-12-22T07:11:06.419Z,137.00
2022-12-22T07:14:08.228Z,134.20
2022-12-22T07:20:12.227Z,111.20
2022-12-22T07:23:14.067Z,122.30
2022-12-22T07:29:17.555Z,122.60
2022-12-22T07:32:19.278Z,126.70
2022-12-22T07:38:22.508Z,125.90
2022-12-22T07:41:42.783Z,132.40
2022-12-22T07:44:44.565Z,131.00
2022-12-22T07:50:48.217Z,133.30
2022-12-22T07:56:51.603Z,132.30
2022-12-22T08:02:57.087Z,116.60
2022-12-22T08:05:59.807Z,119.60
2022-12-22T08:09:02.558Z,118.30
2022-12-22T08:12:04.552Z,119.30
2022-12-22T08:15:07.971Z,117.30
2022-12-22T08:18:09.719Z,122.00
2022-12-22T08:24:13.025Z,128.70
2022-12-22T08:27:23.905Z,123.60
2022-12-22T08:30:27.767Z,131.20
2022-12-22T08:36:34.616Z,125.20
2022-12-22T08:39:38.406Z,128.70
2022-12-22T08:42:40.529Z,126.80
2022-12-22T08:45:43.028Z,128.80
2022-12-22T08:48:44.694Z,136.20
2022-12-22T08:54:48.287Z,131.70
2022-12-22T08:57:55.826Z,138.60
2022-12-22T09:00:58.371Z,132.80
2022-12-22T09:04:00.483Z,116.20
2022-12-22T09:07:05.249Z,114.30
2022-12-22T09:10:08.806Z,110.20
2022-12-22T09:13:10.545Z,116.90
2022-12-22T09:16:12.405Z,115.60
2022-12-22T09:19:14.489Z,101.10
2022-12-22T09:22:19.195Z,101.60
2022-12-22T09:25:23.576Z,101.70
2022-12-22T09:28:25.706Z,98.10
2022-12-22T09:31:28.348Z,107.80
2022-12-22T09:34:30.715Z,101.00
2022-12-22T09:37:32.546Z,108.80
2022-12-22T09:40:34.580Z,96.10
2022-12-22T09:43:37.024Z,97.00
2022-12-22T09:46:38.915Z,101.10
2022-12-22T09:49:40.624Z,103.20
2022-12-22T09:55:47.314Z,114.50
2022-12-22T09:58:49.175Z,127.40
2022-12-22T10:02:39.488Z,124.30
2022-12-22T10:06:16.584Z,132.30
2022-12-22T10:12:55.098Z,88.10
2022-12-22T10:15:56.904Z,89.80
2022-12-22T10:19:07.542Z,83.80
2022-12-22T10:22:25.328Z,85.40
2022-12-22T10:25:39.947Z,85.20
2022-12-22T10:28:59.027Z,86.90
2022-12-22T10:32:16.432Z,89.60
2022-12-22T10:35:18.231Z,87.30
2022-12-22T10:38:36.748Z,86.80
2022-12-22T10:41:43.280Z,79.10
2022-12-22T10:44:46.839Z,85.30
2022-12-22T10:47:51.424Z,127.40
2022-12-22T10:50:53.398Z,88.20
2022-12-22T10:53:56.272Z,66.60
2022-12-22T10:57:22.952Z,68.60
2022-12-22T11:00:26.652Z,71.90
2022-12-22T11:03:31.279Z,215.50
2022-12-22T11:06:32.995Z,191.50
2022-12-22T11:09:35.693Z,128.00
2022-12-22T11:12:56.101Z,187.90
2022-12-22T11:16:03.756Z,184.50
2022-12-22T11:19:35.014Z,90.90
2022-12-22T11:22:47.323Z,76.70
2022-12-22T11:26:10.974Z,83.70
2022-12-22T11:29:32.349Z,97.60
2022-12-22T11:32:56.064Z,80.70
2022-12-22T11:36:01.751Z,80.40
2022-12-22T11:39:15.540Z,80.20
2022-12-22T11:42:30.021Z,72.70
2022-12-22T11:45:42.861Z,70.50
2022-12-22T11:49:00.048Z,73.50
2022-12-22T11:52:04.865Z,70.90
2022-12-22T11:55:30.350Z,71.80
2022-12-22T11:58:44.847Z,76.60
2022-12-22T12:02:15.260Z,75.50
2022-12-22T12:05:43.548Z,74.70
2022-12-22T12:08:58.903Z,73.90
2022-12-22T12:12:03.712Z,74.40
2022-12-22T12:15:14.675Z,66.20
2022-12-22T12:18:35.108Z,60.10
2022-12-22T12:21:52.210Z,62.20
2022-12-22T12:25:02.181Z,66.50
2022-12-22T12:28:19.675Z,64.40
2022-12-22T12:31:26.545Z,67.40
2022-12-22T12:34:32.948Z,67.10
2022-12-22T12:37:38.993Z,66.40
2022-12-22T12:41:06.890Z,65.40
2022-12-22T12:44:18.453Z,70.70
2022-12-22T12:47:31.849Z,70.40
2022-12-22T12:50:34.758Z,87.80
2022-12-22T12:54:15.225Z,86.00
2022-12-22T12:57:38.543Z,85.40
2022-12-22T13:00:47.893Z,85.70
2022-12-22T13:04:03.089Z,75.80
2022-12-22T13:07:06.012Z,73.60
2022-12-22T13:10:18.589Z,76.50
2022-12-22T13:13:23.472Z,80.60
2022-12-22T13:16:27.414Z,75.90
2022-12-22T13:19:30.264Z,82.10
2022-12-22T13:22:33.068Z,94.00
2022-12-22T13:25:47.897Z,91.00
2022-12-22T13:29:01.274Z,105.10
2022-12-22T13:32:14.659Z,92.90
2022-12-22T13:35:34.779Z,92.40
2022-12-22T13:38:38.462Z,100.90
2022-12-22T13:41:42.131Z,111.50
2022-12-22T13:44:44.130Z,117.80
2022-12-22T13:47:47.286Z,75.40
2022-12-22T13:50:52.364Z,65.70
2022-12-22T13:54:12.924Z,67.90
2022-12-22T13:57:19.161Z,67.20
2022-12-22T14:00:25.877Z,76.30
2022-12-22T14:03:58.033Z,83.70
2022-12-22T14:06:49.547Z,82.40
2022-12-22T14:09:56.234Z,81.40
2022-12-22T14:12:58.118Z,91.10
2022-12-22T14:16:02.056Z,80.40
2022-12-22T14:19:05.410Z,76.70
2022-12-22T14:22:13.471Z,75.10
2022-12-22T14:25:24.501Z,70.90
2022-12-22T14:28:40.314Z,77.00
2022-12-22T14:31:52.377Z,80.90
2022-12-22T14:34:54.689Z,88.60
2022-12-22T14:38:19.342Z,84.10
2022-12-22T14:41:44.189Z,92.10
2022-12-22T14:44:47.018Z,93.50
2022-12-22T14:47:48.893Z,96.20
2022-12-22T14:50:52.160Z,96.50
2022-12-22T14:53:56.720Z,91.80
2022-12-22T14:57:15.855Z,90.60
2022-12-22T15:00:24.580Z,93.00
2022-12-22T15:03:37.755Z,82.80
2022-12-22T15:06:45.985Z,80.30
2022-12-22T15:10:14.533Z,84.50
2022-12-22T15:13:21.768Z,93.40
2022-12-22T15:16:23.937Z,98.40
2022-12-22T15:19:29.393Z,102.40
2022-12-22T15:22:31.184Z,108.80
2022-12-22T15:28:34.512Z,95.20
2022-12-22T15:31:37.514Z,109.10
2022-12-22T15:34:39.399Z,102.40
2022-12-22T15:37:41.202Z,126.20
2022-12-22T15:44:00.148Z,114.60
2022-12-22T15:47:02.397Z,109.20
2022-12-22T15:50:04.935Z,105.00
2022-12-22T15:53:09.356Z,106.40
2022-12-22T15:56:17.683Z,109.80
2022-12-22T15:59:21.948Z,102.40
2022-12-22T16:02:23.740Z,104.50
2022-12-22T16:05:25.547Z,104.00
2022-12-22T16:11:29.918Z,114.90
2022-12-22T16:14:38.540Z,123.30
2022-12-22T16:17:41.945Z,128.60
2022-12-22T16:23:47.288Z,106.40
2022-12-22T16:26:48.998Z,91.50
2022-12-22T16:32:53.937Z,113.60
2022-12-22T16:38:57.423Z,112.90
2022-12-22T16:42:00.509Z,99.20
2022-12-22T16:45:04.506Z,106.00
2022-12-22T16:48:10.364Z,141.80
2022-12-22T16:51:18.272Z,207.20
2022-12-22T16:54:20.097Z,163.50
2022-12-22T16:57:21.871Z,163.60
2022-12-22T17:03:27.582Z,146.60
2022-12-22T17:06:29.597Z,154.10
2022-12-22T17:09:42.496Z,162.70
2022-12-22T17:12:44.188Z,158.90
2022-12-22T17:18:48.293Z,158.40
2022-12-22T17:21:50.759Z,176.90
2022-12-22T17:24:54.694Z,167.70
2022-12-22T17:27:57.464Z,174.70
2022-12-22T17:30:59.396Z,170.10
2022-12-22T17:34:01.241Z,164.60
2022-12-22T17:40:05.333Z,159.10
2022-12-22T17:43:09.577Z,139.00
2022-12-22T17:46:16.470Z,126.00
2022-12-22T17:49:20.171Z,100.30
2022-12-22T17:52:23.784Z,59.60
2022-12-22T17:56:06.013Z,47.30
2022-12-22T17:58:50.126Z,42.40
2022-12-22T18:01:51.988Z,41.00
2022-12-22T18:04:53.887Z,35.10
2022-12-22T18:07:59.344Z,32.50
2022-12-22T18:11:02.118Z,35.30
2022-12-22T18:14:04.173Z,35.70
2022-12-22T18:17:05.884Z,34.20
2022-12-22T18:23:20.904Z,33.00
2022-12-22T18:26:30.303Z,35.90
2022-12-22T18:29:31.995Z,31.30
2022-12-22T18:35:35.968Z,34.20
2022-12-22T18:38:37.797Z,29.40
2022-12-22T18:41:39.627Z,29.50
2022-12-22T18:44:41.404Z,33.70
2022-12-22T18:47:43.128Z,31.00
2022-12-22T18:53:46.787Z,31.10
2022-12-22T18:56:49.465Z,34.70
2022-12-22T18:59:51.359Z,31.60
2022-12-22T19:02:54.966Z,37.30
2022-12-22T19:05:58.035Z,36.40
2022-12-22T19:08:59.892Z,36.20
2022-12-22T19:12:01.589Z,35.10
2022-12-22T19:18:06.247Z,37.10
2022-12-22T19:21:12.761Z,35.10
2022-12-22T19:24:14.545Z,35.10
2022-12-22T19:27:27.032Z,35.40
2022-12-22T19:30:29.194Z,37.30
2022-12-22T19:33:42.448Z,39.70
2022-12-22T19:36:44.093Z,38.80
2022-12-22T19:45:52.984Z,39.30
2022-12-22T19:48:56.572Z,42.20
2022-12-22T19:51:58.732Z,46.10
2022-12-22T19:55:00.969Z,43.10
2022-12-22T19:58:02.965Z,42.80
2022-12-22T20:01:05.242Z,43.80
2022-12-22T20:04:13.431Z,37.30
2022-12-22T20:07:16.612Z,39.90
2022-12-22T20:10:18.666Z,36.20
2022-12-22T20:13:23.739Z,40.50
2022-12-22T20:16:25.522Z,40.50
2022-12-22T20:19:27.314Z,35.30
2022-12-22T20:22:29.165Z,36.50
2022-12-22T20:25:36.751Z,36.40
2022-12-22T20:28:39.447Z,35.00
2022-12-22T20:31:41.170Z,38.80
2022-12-22T20:37:45.079Z,34.90
2022-12-22T20:40:49.343Z,33.80
2022-12-22T20:43:51.928Z,37.10
2022-12-22T20:46:53.733Z,38.00
2022-12-22T20:49:55.454Z,44.30
2022-12-22T20:56:00.669Z,39.00
2022-12-22T20:59:21.834Z,41.00
2022-12-22T21:02:28.017Z,43.80
2022-12-22T21:05:30.208Z,41.90
2022-12-22T21:11:34.582Z,34.90
2022-12-22T21:14:36.308Z,37.10
2022-12-22T21:20:45.285Z,37.10
2022-12-22T21:23:47.194Z,30.60
2022-12-22T21:26:51.712Z,34.30
2022-12-22T21:29:53.452Z,37.10
2022-12-22T21:35:58.589Z,40.20
2022-12-22T21:39:06.568Z,33.80
2022-12-22T21:42:18.645Z,37.30
2022-12-22T21:45:27.137Z,32.50
2022-12-22T21:48:30.316Z,34.20
2022-12-22T21:51:32.053Z,32.10
2022-12-22T21:57:35.937Z,31.30
2022-12-22T22:00:39.475Z,34.10
2022-12-22T22:03:41.389Z,46.70
2022-12-22T22:06:43.098Z,43.90
2022-12-22T22:12:46.823Z,41.10
2022-12-22T22:15:48.542Z,33.70
2022-12-22T22:18:50.299Z,33.90
2022-12-22T22:21:52.235Z,34.10
2022-12-22T22:24:54.003Z,36.90
2022-12-22T22:31:00.442Z,44.00
2022-12-22T22:34:02.249Z,44.80
2022-12-22T22:40:11.035Z,37.10
2022-12-22T22:43:14.096Z,40.80
2022-12-22T22:46:16.060Z,38.50
2022-12-22T22:49:21.378Z,40.10
2022-12-22T22:52:26.890Z,36.90
2022-12-22T22:55:28.571Z,38.10
2022-12-22T23:01:32.200Z,34.50
2022-12-22T23:10:41.605Z,30.20
2022-12-22T23:13:47.542Z,31.10
2022-12-22T23:16:49.308Z,33.30
2022-12-22T23:22:53.238Z,30.20
2022-12-22T23:29:02.973Z,33.00
2022-12-22T23:32:05.877Z,32.10
2022-12-22T23:35:07.863Z,43.90
2022-12-22T23:38:09.937Z,54.00
2022-12-22T23:41:13.276Z,40.20
2022-12-22T23:44:15.014Z,37.30
2022-12-22T23:50:18.521Z,38.50
2022-12-22T23:56:22.441Z,31.90
2022-12-22T23:59:24.085Z,35.00
